createdAt,value
2022-08-21T00:02:24.982Z,32
2022-08-21T00:04:58.014Z,28
2022-08-21T00:07:30.602Z,29
2022-08-21T00:10:03.459Z,31
2022-08-21T00:12:36.290Z,28
2022-08-21T00:15:09.195Z,28
2022-08-21T00:17:46.373Z,28
2022-08-21T00:20:18.962Z,28
2022-08-21T00:22:51.606Z,24
2022-08-21T00:25:26.253Z,24
2022-08-21T00:27:58.062Z,24
2022-08-21T00:30:31.909Z,24
2022-08-21T00:33:04.843Z,24
2022-08-21T00:35:38.468Z,20
2022-08-21T00:38:11.261Z,19
2022-08-21T00:40:43.845Z,20
2022-08-21T00:43:16.455Z,20
2022-08-21T00:45:49.185Z,24
2022-08-21T00:48:22.989Z,17
2022-08-21T00:50:57.183Z,20
2022-08-21T00:53:29.947Z,16
2022-08-21T00:56:03.843Z,16
2022-08-21T00:58:40.223Z,13
2022-08-21T01:01:16.188Z,9
2022-08-21T01:03:49.157Z,8
2022-08-21T01:06:21.066Z,8
2022-08-21T01:08:53.081Z,6
2022-08-21T01:11:26.889Z,4
2022-08-21T01:13:57.845Z,4
2022-08-21T01:16:30.269Z,2
2022-08-21T01:19:03.440Z,0
2022-08-21T01:21:34.729Z,0
2022-08-21T01:24:07.519Z,0
2022-08-21T01:26:40.299Z,3
2022-08-21T01:29:13.086Z,4
2022-08-21T01:31:45.776Z,0
2022-08-21T01:34:19.779Z,4
2022-08-21T01:36:54.604Z,0
2022-08-21T01:39:27.225Z,0
2022-08-21T01:42:00.085Z,0
2022-08-21T01:44:32.961Z,0
2022-08-21T01:47:05.621Z,0
2022-08-21T01:49:38.545Z,4
2022-08-21T01:52:10.901Z,0
2022-08-21T01:54:43.639Z,0
2022-08-21T01:57:28.985Z,0
2022-08-21T02:00:00.469Z,0
2022-08-21T02:02:34.906Z,0
2022-08-21T02:05:07.553Z,0
2022-08-21T02:07:40.219Z,0
2022-08-21T02:10:13.044Z,0
2022-08-21T02:12:47.773Z,0
2022-08-21T02:15:20.706Z,0
2022-08-21T02:17:53.391Z,0
2022-08-21T02:20:25.840Z,0
2022-08-21T02:22:59.887Z,0
2022-08-21T02:25:32.400Z,0
2022-08-21T02:28:07.120Z,4
2022-08-21T02:30:39.832Z,4
2022-08-21T02:33:12.264Z,3
2022-08-21T02:35:44.857Z,0
2022-08-21T02:38:16.045Z,0
2022-08-21T02:40:50.852Z,8
2022-08-21T02:43:22.833Z,4
2022-08-21T02:45:55.790Z,3
2022-08-21T02:48:30.785Z,4
2022-08-21T02:51:03.460Z,0
2022-08-21T02:53:36.214Z,0
2022-08-21T02:56:08.918Z,0
2022-08-21T02:58:41.531Z,1
2022-08-21T03:01:13.953Z,4
2022-08-21T03:03:47.166Z,4
2022-08-21T03:06:22.665Z,4
2022-08-21T03:08:54.357Z,4
2022-08-21T03:11:30.661Z,4
2022-08-21T03:14:03.456Z,4
2022-08-21T03:16:36.101Z,4
2022-08-21T03:19:08.750Z,4
2022-08-21T03:21:41.291Z,4
2022-08-21T03:24:13.851Z,4
2022-08-21T03:26:51.559Z,4
2022-08-21T03:29:24.131Z,4
2022-08-21T03:31:57.202Z,4
2022-08-21T03:34:29.966Z,4
2022-08-21T03:37:02.680Z,5
2022-08-21T03:39:35.418Z,4
2022-08-21T03:42:08.316Z,8
2022-08-21T03:44:41.250Z,7
2022-08-21T03:47:13.932Z,8
2022-08-21T03:49:46.568Z,8
2022-08-21T03:52:19.274Z,8
2022-08-21T03:54:52.151Z,8
2022-08-21T03:57:27.091Z,8
2022-08-21T04:00:05.701Z,8
2022-08-21T04:02:38.645Z,8
2022-08-21T04:05:11.478Z,12
2022-08-21T04:07:44.232Z,12
2022-08-21T04:10:19.187Z,12
2022-08-21T04:12:52.201Z,11
2022-08-21T04:15:24.993Z,11
2022-08-21T04:18:00.679Z,12
2022-08-21T04:20:33.673Z,13
2022-08-21T04:23:06.427Z,12
2022-08-21T04:25:39.094Z,12
2022-08-21T04:28:13.649Z,11
2022-08-21T04:30:46.287Z,12
2022-08-21T04:33:19.554Z,12
2022-08-21T04:35:52.637Z,12
2022-08-21T04:38:25.398Z,12
2022-08-21T04:41:18.835Z,12
2022-08-21T04:43:59.185Z,12
2022-08-21T04:46:31.932Z,12
2022-08-21T04:49:04.801Z,8
2022-08-21T04:51:38.309Z,9
2022-08-21T04:54:11.270Z,12
2022-08-21T04:56:43.984Z,12
2022-08-21T04:59:16.645Z,12
2022-08-21T05:01:49.515Z,12
2022-08-21T05:04:23.299Z,12
2022-08-21T05:06:56.326Z,12
2022-08-21T05:09:29.176Z,12
2022-08-21T05:12:02.025Z,12
2022-08-21T05:14:34.791Z,12
2022-08-21T05:17:07.511Z,18
2022-08-21T05:19:40.406Z,13
2022-08-21T05:22:13.305Z,12
2022-08-21T05:24:46.229Z,13
2022-08-21T05:27:19.139Z,16
2022-08-21T05:30:02.431Z,12
2022-08-21T05:32:35.223Z,12
2022-08-21T05:35:07.981Z,12
2022-08-21T05:37:44.085Z,19
2022-08-21T05:40:23.176Z,16
2022-08-21T05:42:55.992Z,12
2022-08-21T05:45:41.427Z,12
2022-08-21T05:48:14.858Z,12
2022-08-21T05:50:48.530Z,15
2022-08-21T05:53:21.479Z,15
2022-08-21T05:55:54.137Z,12
2022-08-21T05:58:27.010Z,13
2022-08-21T06:00:59.733Z,12
2022-08-21T06:03:32.765Z,12
2022-08-21T06:06:05.469Z,12
2022-08-21T06:08:38.003Z,12
2022-08-21T06:11:09.773Z,16
2022-08-21T06:13:40.374Z,16
2022-08-21T06:16:10.883Z,12
2022-08-21T06:18:45.860Z,12
2022-08-21T06:21:16.653Z,13
2022-08-21T06:23:48.817Z,15
2022-08-21T06:26:21.866Z,16
2022-08-21T06:28:54.443Z,16
2022-08-21T06:31:28.465Z,13
2022-08-21T06:34:01.178Z,20
2022-08-21T06:36:42.122Z,20
2022-08-21T06:39:16.371Z,15
2022-08-21T06:42:02.748Z,16
2022-08-21T06:44:41.332Z,16
2022-08-21T06:47:20.227Z,16
2022-08-21T06:49:52.827Z,16
2022-08-21T06:52:28.233Z,19
2022-08-21T06:55:02.500Z,17
2022-08-21T06:57:37.951Z,20
2022-08-21T07:00:12.799Z,20
2022-08-21T07:02:47.479Z,16
2022-08-21T07:05:18.947Z,21
2022-08-21T07:07:53.759Z,20
2022-08-21T07:10:31.803Z,16
2022-08-21T07:13:16.578Z,16
2022-08-21T07:15:47.839Z,20
2022-08-21T07:18:20.623Z,20
2022-08-21T07:20:54.970Z,16
2022-08-21T07:23:28.651Z,23
2022-08-21T07:26:02.568Z,20
2022-08-21T07:28:36.263Z,24
2022-08-21T07:31:09.025Z,20
2022-08-21T07:33:43.485Z,16
2022-08-21T07:36:16.193Z,16
2022-08-21T07:38:52.758Z,16
2022-08-21T07:41:24.377Z,13
2022-08-21T07:43:54.585Z,12
2022-08-21T07:46:29.775Z,16
2022-08-21T07:49:02.380Z,12
2022-08-21T07:51:35.103Z,8
2022-08-21T07:54:07.445Z,12
2022-08-21T07:56:40.239Z,11
2022-08-21T07:59:12.900Z,12
2022-08-21T08:01:46.170Z,12
2022-08-21T08:04:20.410Z,11
2022-08-21T08:06:57.114Z,9
2022-08-21T08:09:29.980Z,12
2022-08-21T08:12:03.528Z,12
2022-08-21T08:14:40.088Z,12
2022-08-21T08:17:12.334Z,13
2022-08-21T08:19:44.817Z,12
2022-08-21T08:22:16.499Z,14
2022-08-21T08:24:49.229Z,15
2022-08-21T08:27:21.788Z,11
2022-08-21T08:29:53.395Z,10
2022-08-21T08:32:28.619Z,16
2022-08-21T08:34:59.800Z,15
2022-08-21T08:37:34.367Z,16
2022-08-21T08:40:32.692Z,20
2022-08-21T08:43:30.267Z,12
2022-08-21T08:46:09.575Z,16
2022-08-21T08:48:49.353Z,12
2022-08-21T08:51:23.777Z,20
2022-08-21T08:54:05.211Z,14
2022-08-21T08:56:52.480Z,14
2022-08-21T08:59:29.849Z,16
2022-08-21T09:02:06.163Z,16
2022-08-21T09:04:40.301Z,20
2022-08-21T09:07:12.647Z,17
2022-08-21T09:09:45.160Z,16
2022-08-21T09:12:19.407Z,16
2022-08-21T09:14:52.147Z,16
2022-08-21T09:17:24.856Z,20
2022-08-21T09:20:00.449Z,20
2022-08-21T09:22:36.949Z,20
2022-08-21T09:25:12.141Z,20
2022-08-21T09:27:45.182Z,16
2022-08-21T09:30:17.681Z,20
2022-08-21T09:32:51.752Z,20
2022-08-21T09:35:24.636Z,20
2022-08-21T09:38:00.443Z,20
2022-08-21T09:40:32.943Z,20
2022-08-21T09:43:06.239Z,20
2022-08-21T09:45:40.446Z,20
2022-08-21T09:48:13.271Z,18
2022-08-21T09:50:45.821Z,16
2022-08-21T09:53:18.518Z,20
2022-08-21T09:55:56.534Z,16
2022-08-21T09:58:29.142Z,20
2022-08-21T10:01:01.770Z,16
2022-08-21T10:03:34.751Z,20
2022-08-21T10:06:09.184Z,16
2022-08-21T10:08:42.198Z,16
2022-08-21T10:11:15.085Z,20
2022-08-21T10:13:45.674Z,17
2022-08-21T10:16:17.843Z,16
2022-08-21T10:18:49.782Z,16
2022-08-21T10:21:22.733Z,12
2022-08-21T10:23:55.201Z,13
2022-08-21T10:26:27.807Z,12
2022-08-21T10:28:59.907Z,9
2022-08-21T10:31:31.649Z,12
2022-08-21T10:34:04.345Z,8
2022-08-21T10:36:36.050Z,8
2022-08-21T10:39:25.492Z,12
2022-08-21T10:42:10.164Z,8
2022-08-21T10:44:41.702Z,4
2022-08-21T10:47:21.190Z,8
2022-08-21T10:49:53.458Z,4
2022-08-21T10:52:25.801Z,4
2022-08-21T10:54:58.149Z,4
2022-08-21T10:57:32.198Z,4
2022-08-21T11:00:06.311Z,4
2022-08-21T11:02:38.263Z,4
2022-08-21T11:05:10.283Z,5
2022-08-21T11:07:44.510Z,4
2022-08-21T11:10:19.958Z,4
2022-08-21T11:12:52.725Z,15
2022-08-21T11:15:29.463Z,8
2022-08-21T11:18:04.240Z,5
2022-08-21T11:20:36.298Z,4
2022-08-21T11:23:08.925Z,8
2022-08-21T11:25:42.635Z,8
2022-08-21T11:28:14.964Z,8
2022-08-21T11:30:47.227Z,8
2022-08-21T11:33:19.736Z,8
2022-08-21T11:35:52.307Z,8
2022-08-21T11:38:26.802Z,19
2022-08-21T11:40:59.699Z,19
2022-08-21T11:43:34.699Z,16
2022-08-21T11:46:07.263Z,11
2022-08-21T11:48:40.366Z,16
2022-08-21T11:51:12.835Z,12
2022-08-21T11:53:48.892Z,16
2022-08-21T11:56:25.523Z,12
2022-08-21T11:58:59.750Z,12
2022-08-21T12:01:34.149Z,14
2022-08-21T12:04:09.813Z,12
2022-08-21T12:06:43.873Z,20
2022-08-21T12:09:16.691Z,17
2022-08-21T12:11:51.206Z,15
2022-08-21T12:14:25.422Z,16
2022-08-21T12:16:59.818Z,12
2022-08-21T12:19:32.395Z,12
2022-08-21T12:22:05.070Z,14
2022-08-21T12:24:37.360Z,10
2022-08-21T12:27:09.666Z,11
2022-08-21T12:29:41.832Z,12
2022-08-21T12:32:17.736Z,12
2022-08-21T12:34:54.182Z,12
2022-08-21T12:37:24.654Z,8
2022-08-21T12:39:57.105Z,8
2022-08-21T12:42:30.059Z,8
2022-08-21T12:45:02.723Z,8
2022-08-21T12:47:35.298Z,8
2022-08-21T12:50:08.749Z,12
2022-08-21T12:52:40.975Z,8
2022-08-21T12:55:13.390Z,8
2022-08-21T12:57:46.286Z,8
2022-08-21T13:00:19.270Z,8
2022-08-21T13:02:54.742Z,8
2022-08-21T13:05:29.799Z,8
2022-08-21T13:08:02.313Z,8
2022-08-21T13:10:33.613Z,8
2022-08-21T13:13:12.484Z,8
2022-08-21T13:15:58.392Z,7
2022-08-21T13:18:37.304Z,4
2022-08-21T13:21:12.064Z,4
2022-08-21T13:23:57.105Z,8
2022-08-21T13:27:22.003Z,4
2022-08-21T13:29:54.397Z,4
2022-08-21T13:32:30.709Z,4
2022-08-21T13:35:01.907Z,4
2022-08-21T13:37:34.132Z,4
2022-08-21T13:40:08.094Z,5
2022-08-21T13:42:40.589Z,4
2022-08-21T13:45:13.235Z,4
2022-08-21T13:47:46.961Z,5
2022-08-21T13:50:26.851Z,7
2022-08-21T13:53:00.080Z,8
2022-08-21T13:55:35.019Z,4
2022-08-21T13:58:09.319Z,4
2022-08-21T14:00:42.926Z,5
2022-08-21T14:03:16.914Z,4
2022-08-21T14:05:49.060Z,4
2022-08-21T14:08:30.105Z,4
2022-08-21T14:11:01.927Z,4
2022-08-21T14:13:33.889Z,8
2022-08-21T14:16:11.764Z,8
2022-08-21T14:18:47.483Z,5
2022-08-21T14:21:42.755Z,4
2022-08-21T14:24:17.404Z,8
2022-08-21T14:26:53.551Z,8
2022-08-21T14:29:25.871Z,6
2022-08-21T14:32:02.740Z,8
2022-08-21T14:34:58.052Z,8
2022-08-21T14:37:30.565Z,7
2022-08-21T14:40:03.293Z,8
2022-08-21T14:42:37.668Z,4
2022-08-21T14:45:13.360Z,4
2022-08-21T14:47:47.873Z,10
2022-08-21T14:50:21.119Z,8
2022-08-21T14:52:53.686Z,8
2022-08-21T14:55:42.311Z,12
2022-08-21T14:58:14.724Z,8
2022-08-21T15:00:47.163Z,12
2022-08-21T15:03:20.171Z,12
2022-08-21T15:05:54.148Z,10
2022-08-21T15:08:26.551Z,15
2022-08-21T15:11:11.398Z,12
2022-08-21T15:14:11.807Z,16
2022-08-21T15:16:44.133Z,14
2022-08-21T15:19:16.168Z,16
2022-08-21T15:21:50.730Z,13
2022-08-21T15:24:24.014Z,12
2022-08-21T15:26:54.515Z,12
2022-08-21T15:29:28.964Z,13
2022-08-21T15:32:05.841Z,12
2022-08-21T15:34:38.500Z,12
2022-08-21T15:37:10.983Z,12
2022-08-21T15:39:48.458Z,12
2022-08-21T15:42:26.437Z,12
2022-08-21T15:45:03.714Z,12
2022-08-21T15:47:36.166Z,16
2022-08-21T15:50:08.922Z,20
2022-08-21T15:52:40.733Z,19
2022-08-21T15:55:12.862Z,19
2022-08-21T15:57:45.100Z,14
2022-08-21T19:36:24.070Z,8
2022-08-21T19:38:54.391Z,8
2022-08-21T19:41:26.950Z,8
2022-08-21T19:43:58.922Z,8
2022-08-21T19:46:33.002Z,8
2022-08-21T19:49:10.286Z,8
2022-08-21T19:51:43.399Z,8
2022-08-21T19:54:17.652Z,8
2022-08-21T19:56:50.613Z,8
2022-08-21T19:59:24.788Z,8
2022-08-21T20:01:59.238Z,8
2022-08-21T20:04:32.440Z,8
